LCRA/AKT METAR and TAF weather

Enter ICAO airport designator
Station Type Date Time Source
LCRA METAR 2021/07/27 20:20 UTC NOAA

LCRA 272020Z 26004KT CAVOK 28/22 Q1006 NOSIG RMK BLU BLU


Station Type Date Time Source
LCRA Decoded METAR 2021/07/27 20:20 UTC NOAA

Akrotiri, Cyprus (LCRA) 34-35N 032-59E 0M
Jul 27, 2021 - 04:20 PM EDT / 2021.07.27 2020 UTC
Wind: from the W (260 degrees) at 5 MPH (4 KT):0
Visibility: greater than 7 mile(s):0
Temperature: 82 F (28 C)
Dew Point: 71 F (22 C)
Relative Humidity: 69%
Pressure (altimeter): 29.71 in. Hg (1006 hPa)
ob: LCRA 272020Z 26004KT CAVOK 28/22 Q1006 NOSIG RMK BLU BLU
cycle: 20

Station Type Date Time Source
LCRA TAF 2021/07/27 21:33 UTC NOAA

TAF TAF LCRA 271925Z 2721/2815 34005KT CAVOK PROB30
TEMPO 2721/2724 05006KT
BECMG 2800/2803 06008KT
BECMG 2807/2810 23008KT

Example: see airport list